Time;durP1;ratioP1;P1;durP2;ratioP2;P2;SDS_P1;SDS_P2;PMS_P1;PMS_P2;Temp;Humidity;BMP_temperature;BMP_pressure;BME280_temperature;BME280_humidity;BME280_pressure;Samples;Min_cycle;Max_cycle;Signal;HPM_P1;HPM_P2
2023/03/13 00:01:39;;;;;;;9.35;4.55;;;8.00;99.90;;;;;;5008772;28;20194;-65
2023/03/13 00:04:04;;;;;;;7.15;4.00;;;7.70;99.90;;;;;;5010050;28;20178;-65
2023/03/13 00:06:33;;;;;;;7.60;3.70;;;7.60;99.90;;;;;;5007846;28;20266;-65
2023/03/13 00:09:00;;;;;;;5.68;3.75;;;7.90;99.90;;;;;;5008224;28;20203;-67
2023/03/13 00:11:26;;;;;;;4.70;3.25;;;7.70;99.90;;;;;;5039387;28;20191;-66
2023/03/13 00:13:56;;;;;;;6.85;3.60;;;8.30;99.90;;;;;;5009688;28;20632;-66
2023/03/13 00:16:22;;;;;;;5.65;3.92;;;8.20;99.90;;;;;;5008331;28;20219;-66
2023/03/13 00:18:50;;;;;;;5.45;3.60;;;8.00;99.90;;;;;;5007599;28;20238;-66
2023/03/13 00:21:17;;;;;;;10.65;3.50;;;8.00;99.90;;;;;;5009952;28;20215;-66
2023/03/13 00:23:43;;;;;;;6.97;3.70;;;7.90;99.90;;;;;;5009654;28;20195;-66
2023/03/13 00:26:11;;;;;;;7.55;4.30;;;7.90;99.90;;;;;;5006688;28;20215;-66
2023/03/13 00:28:39;;;;;;;10.93;4.15;;;8.00;99.90;;;;;;5008168;28;20198;-66
2023/03/13 00:31:13;;;;;;;6.25;4.35;;;8.10;99.90;;;;;;5008427;28;20289;-66
2023/03/13 00:33:41;;;;;;;5.93;3.30;;;8.20;99.90;;;;;;5007072;28;20412;-66
2023/03/13 00:36:12;;;;;;;6.10;4.47;;;8.20;99.90;;;;;;5009014;28;20247;-66
2023/03/13 00:38:38;;;;;;;6.95;3.70;;;8.40;99.90;;;;;;5008452;28;20595;-65
2023/03/13 00:41:10;;;;;;;7.60;3.87;;;7.80;99.90;;;;;;5007239;28;20349;-65
2023/03/13 00:43:36;;;;;;;6.90;3.85;;;7.70;99.90;;;;;;5007904;28;20187;-66
2023/03/13 00:46:02;;;;;;;8.70;4.07;;;8.00;99.90;;;;;;5008933;28;20195;-66
2023/03/13 00:48:28;;;;;;;7.80;3.67;;;8.00;99.90;;;;;;5008744;28;20230;-65
2023/03/13 00:50:54;;;;;;;7.17;3.67;;;7.70;99.90;;;;;;5006564;28;20326;-66
2023/03/13 00:53:20;;;;;;;7.35;3.65;;;7.90;99.90;;;;;;5009803;28;20442;-65
2023/03/13 00:55:58;;;;;;;11.53;4.50;;;8.20;99.90;;;;;;5005959;28;20746;-65
2023/03/13 00:58:25;;;;;;;8.30;3.85;;;8.00;99.90;;;;;;5006911;28;20807;-66
2023/03/13 01:00:51;;;;;;;7.13;3.65;;;8.40;99.90;;;;;;5007978;28;20211;-66
2023/03/13 01:03:17;;;;;;;9.15;4.30;;;8.00;99.90;;;;;;5007577;28;20249;-66
2023/03/13 01:05:43;;;;;;;11.27;3.50;;;8.20;99.90;;;;;;5008857;28;20562;-66
2023/03/13 01:08:08;;;;;;;7.80;4.10;;;8.30;99.90;;;;;;5007818;28;20191;-66
2023/03/13 01:10:34;;;;;;;5.17;3.80;;;8.20;99.90;;;;;;5006701;28;20210;-66
2023/03/13 01:13:00;;;;;;;12.63;3.90;;;8.30;99.90;;;;;;5008025;28;20668;-66
2023/03/13 01:15:25;;;;;;;5.80;4.10;;;8.40;99.90;;;;;;5007220;28;20673;-66
2023/03/13 01:17:51;;;;;;;7.80;3.50;;;8.40;99.90;;;;;;5009542;28;20453;-66
2023/03/13 01:20:17;;;;;;;10.53;3.77;;;8.30;99.90;;;;;;5007374;28;20206;-66
2023/03/13 01:22:43;;;;;;;5.87;3.60;;;8.30;99.90;;;;;;5008284;28;20190;-66
2023/03/13 01:25:08;;;;;;;4.60;3.33;;;8.50;99.90;;;;;;5007416;28;20183;-66
2023/03/13 01:27:34;;;;;;;6.00;3.63;;;8.50;99.90;;;;;;5007607;28;20252;-66
2023/03/13 01:30:00;;;;;;;7.93;4.17;;;8.60;99.90;;;;;;5008054;28;20557;-66
2023/03/13 01:32:25;;;;;;;6.00;3.63;;;8.50;99.90;;;;;;5008504;28;20195;-66
2023/03/13 01:34:51;;;;;;;11.97;3.90;;;8.30;99.90;;;;;;5008023;28;20268;-66
2023/03/13 01:37:16;;;;;;;8.17;3.90;;;8.50;99.90;;;;;;5010160;28;20194;-66
2023/03/13 01:39:42;;;;;;;4.60;3.30;;;8.50;99.90;;;;;;5007844;28;20203;-66
2023/03/13 01:42:08;;;;;;;6.47;3.60;;;8.60;99.90;;;;;;5007720;28;20185;-66
2023/03/13 01:44:55;;;;;;;7.77;4.43;;;8.60;99.90;;;;;;5008247;28;20668;-66
2023/03/13 01:47:21;;;;;;;4.63;3.25;;;8.50;99.90;;;;;;5007109;28;20183;-66
2023/03/13 01:49:48;;;;;;;8.15;3.22;;;8.80;99.90;;;;;;5005552;28;20207;-66
2023/03/13 01:52:27;;;;;;;8.68;3.67;;;8.70;99.90;;;;;;5008552;28;20735;-66
2023/03/13 01:55:06;;;;;;;6.72;3.35;;;8.70;99.90;;;;;;5005366;28;20219;-66
2023/03/13 01:57:35;;;;;;;3.58;2.17;;;8.80;99.90;;;;;;5007414;28;20195;-66
2023/03/13 02:00:15;;;;;;;5.70;3.75;;;8.90;99.90;;;;;;5008754;28;20220;-66
2023/03/13 02:02:45;;;;;;;6.07;3.60;;;9.00;99.90;;;;;;5006841;28;20191;-67
2023/03/13 02:05:12;;;;;;;5.65;3.05;;;8.90;99.90;;;;;;5006053;28;20212;-66
2023/03/13 02:07:44;;;;;;;9.50;3.10;;;8.90;99.90;;;;;;5007623;28;20326;-66
2023/03/13 02:10:12;;;;;;;8.07;3.10;;;9.20;99.90;;;;;;5006401;28;20301;-66
2023/03/13 02:12:39;;;;;;;9.32;3.20;;;8.90;99.90;;;;;;5008391;28;20186;-66
2023/03/13 02:15:13;;;;;;;9.88;4.20;;;9.20;99.90;;;;;;5009100;28;20235;-66
2023/03/13 02:17:41;;;;;;;8.07;3.75;;;9.10;99.90;;;;;;5008523;28;20270;-66
2023/03/13 02:20:08;;;;;;;4.60;2.60;;;9.40;99.90;;;;;;5007134;28;20262;-66
2023/03/13 02:22:56;;;;;;;4.00;2.83;;;9.20;99.90;;;;;;5012186;28;20193;-66
2023/03/13 02:25:40;;;;;;;6.28;2.90;;;9.30;99.90;;;;;;5009427;28;20411;-66
2023/03/13 02:28:14;;;;;;;5.00;2.72;;;9.30;99.90;;;;;;5009270;28;20247;-66
2023/03/13 02:30:41;;;;;;;5.55;3.33;;;9.50;99.90;;;;;;5011033;28;20218;-67
2023/03/13 02:33:07;;;;;;;3.83;2.63;;;9.30;99.90;;;;;;5010227;28;20275;-66
2023/03/13 02:35:34;;;;;;;7.53;3.00;;;9.40;99.90;;;;;;5011749;28;20318;-66
2023/03/13 02:38:04;;;;;;;3.25;2.60;;;9.40;99.90;;;;;;5010766;28;20267;-66
2023/03/13 02:40:34;;;;;;;5.00;2.60;;;9.60;99.90;;;;;;5008047;28;20216;-66
2023/03/13 02:43:06;;;;;;;5.70;2.50;;;9.50;99.90;;;;;;5010331;28;20181;-66
2023/03/13 02:45:31;;;;;;;4.25;2.38;;;9.50;99.90;;;;;;5043273;28;20191;-66
2023/03/13 02:47:57;;;;;;;4.27;2.37;;;9.60;99.90;;;;;;5010095;28;20204;-66
2023/03/13 02:50:23;;;;;;;4.10;2.00;;;10.00;99.90;;;;;;5011439;28;20596;-66
2023/03/13 02:52:59;;;;;;;5.07;2.07;;;9.60;99.90;;;;;;5011669;28;20218;-66
2023/03/13 02:55:29;;;;;;;4.65;2.17;;;9.80;99.90;;;;;;5007016;28;20455;-66
2023/03/13 02:57:55;;;;;;;3.95;2.55;;;9.90;99.90;;;;;;5009351;28;20267;-66
2023/03/13 03:00:25;;;;;;;9.13;2.60;;;9.80;99.90;;;;;;5008166;28;20317;-66
2023/03/13 03:02:51;;;;;;;3.83;2.05;;;9.90;99.90;;;;;;5010678;28;20230;-66
2023/03/13 03:05:17;;;;;;;3.03;2.10;;;10.00;99.90;;;;;;5009981;28;20189;-66
2023/03/13 03:07:43;;;;;;;7.50;2.47;;;10.00;99.90;;;;;;5009412;28;20245;-66
2023/03/13 03:10:09;;;;;;;4.00;1.47;;;9.90;99.90;;;;;;5005719;28;20450;-66
2023/03/13 03:12:34;;;;;;;5.57;1.98;;;9.90;99.90;;;;;;5010034;28;20227;-66
2023/03/13 03:15:00;;;;;;;3.43;1.93;;;10.00;99.90;;;;;;5009544;28;20228;-66
2023/03/13 03:17:26;;;;;;;4.17;2.30;;;10.20;99.90;;;;;;5009508;28;20216;-66
2023/03/13 03:19:51;;;;;;;4.43;2.33;;;10.20;99.90;;;;;;5009918;28;20286;-66
2023/03/13 03:22:17;;;;;;;4.63;2.50;;;10.30;99.90;;;;;;5009717;28;20229;-66
2023/03/13 03:24:43;;;;;;;1.60;1.50;;;10.30;99.90;;;;;;5008212;28;20200;-66
2023/03/13 03:27:08;;;;;;;4.07;1.50;;;10.20;99.90;;;;;;5010521;28;20233;-67
2023/03/13 03:29:34;;;;;;;3.70;1.90;;;10.30;99.90;;;;;;5008967;28;20198;-66
2023/03/13 03:31:59;;;;;;;1.90;1.40;;;10.40;99.90;;;;;;5009303;28;20179;-67
2023/03/13 03:34:25;;;;;;;4.70;1.90;;;10.40;99.90;;;;;;5008051;28;20218;-66
2023/03/13 03:36:51;;;;;;;3.03;1.83;;;10.40;99.90;;;;;;5010685;28;20212;-66
2023/03/13 03:39:16;;;;;;;4.33;1.67;;;10.60;99.90;;;;;;5005721;28;20626;-67
2023/03/13 03:41:42;;;;;;;2.73;1.73;;;10.40;99.90;;;;;;5008762;28;20610;-66
2023/03/13 03:44:07;;;;;;;6.67;1.87;;;10.40;99.90;;;;;;5010244;28;20192;-66
2023/03/13 03:46:33;;;;;;;3.17;1.60;;;10.40;99.90;;;;;;5009586;28;20686;-66
2023/03/13 03:48:59;;;;;;;3.63;1.87;;;10.40;99.90;;;;;;5008723;28;20819;-66
2023/03/13 03:51:24;;;;;;;2.90;2.13;;;10.30;99.90;;;;;;5009572;28;20188;-66
2023/03/13 03:53:50;;;;;;;3.73;2.00;;;10.50;99.90;;;;;;5009919;28;20194;-66
2023/03/13 03:56:15;;;;;;;5.53;2.13;;;10.30;99.90;;;;;;5005712;28;20212;-66
2023/03/13 03:58:41;;;;;;;2.83;1.50;;;10.40;99.90;;;;;;5009319;28;20200;-66
2023/03/13 04:01:07;;;;;;;4.73;1.67;;;10.50;99.90;;;;;;5008196;28;20298;-66
2023/03/13 04:03:33;;;;;;;2.50;1.53;;;10.40;99.90;;;;;;5008522;28;20737;-66
2023/03/13 04:05:59;;;;;;;3.03;1.55;;;10.60;99.90;;;;;;5009492;28;20259;-66
2023/03/13 04:08:25;;;;;;;1.83;1.20;;;10.80;99.90;;;;;;5009310;28;20207;-66
2023/03/13 04:10:51;;;;;;;1.40;1.20;;;10.80;99.90;;;;;;5006759;28;20211;-67
2023/03/13 04:13:16;;;;;;;1.70;0.90;;;10.80;99.90;;;;;;5010003;28;20446;-66
2023/03/13 04:15:42;;;;;;;1.90;1.03;;;10.90;99.90;;;;;;5009406;28;20539;-66
2023/03/13 04:18:07;;;;;;;1.30;1.20;;;11.00;99.90;;;;;;5008526;28;20181;-66
2023/03/13 04:20:33;;;;;;;6.17;1.30;;;11.40;99.90;;;;;;5007974;28;20222;-66
2023/03/13 04:22:59;;;;;;;2.20;0.83;;;11.60;99.90;;;;;;5009278;28;20179;-66
2023/03/13 04:25:25;;;;;;;1.87;0.90;;;11.80;99.90;;;;;;5006734;28;20453;-66
2023/03/13 04:27:51;;;;;;;1.75;0.90;;;12.00;99.90;;;;;;5008847;28;20270;-67
2023/03/13 04:30:17;;;;;;;1.63;1.17;;;12.40;99.90;;;;;;5008764;28;20289;-66
2023/03/13 04:32:42;;;;;;;0.90;0.70;;;12.40;99.90;;;;;;5007397;28;20186;-66
2023/03/13 04:35:08;;;;;;;1.50;0.97;;;12.10;99.90;;;;;;5006397;28;20476;-66
2023/03/13 04:37:33;;;;;;;2.47;1.07;;;12.60;99.90;;;;;;5008418;28;20191;-66
2023/03/13 04:40:00;;;;;;;1.67;0.80;;;12.50;99.90;;;;;;5005806;28;20202;-66
2023/03/13 04:42:26;;;;;;;2.08;0.85;;;12.40;99.90;;;;;;5008688;28;20547;-66
2023/03/13 04:44:51;;;;;;;0.80;0.80;;;12.80;99.90;;;;;;5006236;28;20249;-66
2023/03/13 04:47:17;;;;;;;3.70;0.87;;;12.60;99.90;;;;;;5008753;28;20190;-66
2023/03/13 04:49:43;;;;;;;0.80;0.80;;;12.60;99.90;;;;;;5009318;28;20229;-66
2023/03/13 04:52:09;;;;;;;1.00;0.67;;;12.60;99.90;;;;;;5008937;28;20198;-67
2023/03/13 04:54:35;;;;;;;1.00;0.80;;;12.70;99.90;;;;;;5005778;28;20183;-66
2023/03/13 04:57:00;;;;;;;0.90;0.80;;;12.80;99.90;;;;;;5008436;28;20484;-66
2023/03/13 04:59:26;;;;;;;2.20;1.40;;;12.70;99.90;;;;;;5007217;28;20283;-67
2023/03/13 05:01:52;;;;;;;0.80;0.80;;;12.90;99.90;;;;;;5005879;28;20253;-67
2023/03/13 05:04:17;;;;;;;1.03;0.80;;;12.80;99.90;;;;;;5007750;28;20645;-67
2023/03/13 05:06:43;;;;;;;1.20;0.80;;;12.60;99.90;;;;;;5006217;28;20247;-66
2023/03/13 05:09:09;;;;;;;0.80;0.80;;;13.00;99.90;;;;;;5007127;28;20211;-67
2023/03/13 05:11:34;;;;;;;1.03;0.80;;;12.90;99.90;;;;;;5008401;28;20198;-66
2023/03/13 05:14:00;;;;;;;1.33;0.80;;;12.90;99.90;;;;;;5006859;28;20870;-67
2023/03/13 05:16:25;;;;;;;1.23;0.60;;;12.80;99.90;;;;;;5006258;28;20229;-67
2023/03/13 05:18:51;;;;;;;0.90;0.80;;;12.90;99.90;;;;;;5007351;28;20222;-68
2023/03/13 05:21:17;;;;;;;2.73;0.80;;;13.00;99.90;;;;;;5007882;28;20269;-67
2023/03/13 05:23:42;;;;;;;1.00;0.83;;;12.90;99.90;;;;;;5008097;28;20182;-67
2023/03/13 05:26:08;;;;;;;1.87;1.17;;;12.90;99.90;;;;;;5003281;28;20268;-67
2023/03/13 05:28:33;;;;;;;0.97;0.73;;;12.80;99.90;;;;;;5008579;28;20187;-67
2023/03/13 05:30:59;;;;;;;1.00;1.00;;;13.10;99.90;;;;;;5008664;28;20211;-67
2023/03/13 05:33:25;;;;;;;0.63;0.63;;;12.80;99.90;;;;;;5008313;28;20261;-67
2023/03/13 05:35:50;;;;;;;2.20;0.90;;;12.90;99.90;;;;;;5009247;28;20998;-67
2023/03/13 05:38:16;;;;;;;1.53;0.80;;;13.00;99.90;;;;;;5008297;28;20558;-67
2023/03/13 05:40:43;;;;;;;1.00;0.60;;;13.00;99.90;;;;;;5005057;28;20267;-67
2023/03/13 05:43:08;;;;;;;1.63;0.80;;;13.20;99.90;;;;;;5008329;28;20786;-68
2023/03/13 05:45:34;;;;;;;1.47;1.00;;;13.00;99.90;;;;;;5005488;28;21013;-67
2023/03/13 05:47:59;;;;;;;1.20;1.10;;;13.10;99.90;;;;;;5006274;28;20195;-67
2023/03/13 05:50:25;;;;;;;0.80;0.80;;;13.10;99.90;;;;;;5003067;28;20428;-68
2023/03/13 05:52:51;;;;;;;1.43;1.07;;;12.90;99.90;;;;;;5006373;28;20191;-67
2023/03/13 05:55:17;;;;;;;1.60;0.90;;;12.80;99.90;;;;;;5004700;28;20230;-67
2023/03/13 05:57:46;;;;;;;1.40;0.98;;;12.90;99.90;;;;;;5010915;28;20183;-67
2023/03/13 06:00:13;;;;;;;1.95;0.82;;;13.10;99.90;;;;;;5011351;28;20206;-67
2023/03/13 06:02:40;;;;;;;1.27;0.75;;;13.10;99.90;;;;;;5009887;28;20556;-67
2023/03/13 06:05:06;;;;;;;1.42;0.80;;;13.30;99.90;;;;;;5008126;28;20235;-67
2023/03/13 06:07:32;;;;;;;1.47;0.90;;;13.10;99.90;;;;;;5009791;28;20199;-67
2023/03/13 06:09:57;;;;;;;0.70;0.60;;;13.20;99.90;;;;;;5007187;28;20547;-67
2023/03/13 06:12:23;;;;;;;1.27;0.90;;;13.40;99.90;;;;;;5009142;28;20257;-67
2023/03/13 06:14:48;;;;;;;2.00;1.27;;;13.30;99.90;;;;;;5011020;28;20278;-67
2023/03/13 06:17:14;;;;;;;0.80;0.67;;;13.50;99.90;;;;;;5007524;28;20967;-66
2023/03/13 06:19:40;;;;;;;5.33;0.97;;;13.20;99.90;;;;;;5009164;28;20213;-68
2023/03/13 06:22:05;;;;;;;1.07;0.60;;;13.40;99.90;;;;;;5010267;28;20254;-66
2023/03/13 06:24:31;;;;;;;1.83;0.87;;;13.50;99.90;;;;;;5008960;28;20251;-66
2023/03/13 06:26:57;;;;;;;1.33;0.80;;;13.60;99.90;;;;;;5010337;28;20238;-67
2023/03/13 06:29:23;;;;;;;3.47;1.00;;;13.50;99.90;;;;;;5005002;28;20735;-70
2023/03/13 06:31:49;;;;;;;1.40;0.70;;;13.50;99.90;;;;;;4997597;28;20545;-71
2023/03/13 06:34:15;;;;;;;1.13;0.80;;;13.50;99.90;;;;;;5011320;28;20628;-71
2023/03/13 06:36:41;;;;;;;2.13;1.10;;;13.50;99.90;;;;;;5009350;28;20293;-72
2023/03/13 06:39:07;;;;;;;0.83;0.80;;;13.60;99.90;;;;;;5007439;28;20221;-68
2023/03/13 06:41:33;;;;;;;0.80;0.70;;;13.60;99.90;;;;;;5007714;28;20676;-68
2023/03/13 06:43:58;;;;;;;1.10;0.77;;;13.80;99.90;;;;;;5008925;28;20440;-69
2023/03/13 06:46:24;;;;;;;2.07;1.20;;;13.70;99.90;;;;;;5009542;28;20269;-68
2023/03/13 06:48:50;;;;;;;2.47;0.88;;;14.10;99.90;;;;;;5006288;28;20267;-69
2023/03/13 06:51:19;;;;;;;0.82;0.70;;;13.70;99.90;;;;;;5008438;28;20187;-69
2023/03/13 06:53:46;;;;;;;1.65;1.27;;;13.90;99.90;;;;;;5040014;28;20249;-69
2023/03/13 06:56:12;;;;;;;1.90;0.82;;;14.00;99.90;;;;;;5008076;28;20202;-69
2023/03/13 06:58:39;;;;;;;1.13;1.00;;;14.20;99.90;;;;;;5010679;28;20545;-69
2023/03/13 07:01:10;;;;;;;0.90;0.70;;;14.00;99.90;;;;;;5007764;28;20207;-68
2023/03/13 07:03:36;;;;;;;1.70;0.80;;;13.90;99.90;;;;;;5009903;28;20769;-70
2023/03/13 07:06:03;;;;;;;1.10;0.90;;;14.20;99.90;;;;;;5008666;28;20258;-71
2023/03/13 07:08:28;;;;;;;1.75;0.80;;;13.90;99.90;;;;;;5010680;28;20194;-71
2023/03/13 07:10:58;;;;;;;0.80;0.60;;;14.00;99.90;;;;;;5008198;28;20199;-72
2023/03/13 07:13:24;;;;;;;0.90;0.70;;;14.00;99.90;;;;;;5038928;28;20445;-71
2023/03/13 07:15:50;;;;;;;0.93;0.90;;;13.90;99.90;;;;;;5008731;28;20218;-72
2023/03/13 07:18:16;;;;;;;1.00;0.90;;;14.00;99.90;;;;;;5005185;28;20179;-72
2023/03/13 07:20:43;;;;;;;0.85;0.80;;;14.00;99.90;;;;;;5007369;28;20785;-71
2023/03/13 07:23:08;;;;;;;1.30;1.10;;;14.00;99.90;;;;;;5023338;28;20215;-69
2023/03/13 07:25:34;;;;;;;1.08;0.98;;;14.10;99.90;;;;;;5007647;28;20513;-69
2023/03/13 07:28:00;;;;;;;1.30;0.80;;;13.90;99.90;;;;;;5006490;28;20901;-71
2023/03/13 07:30:26;;;;;;;0.70;0.63;;;14.00;99.90;;;;;;5008782;28;20226;-70
2023/03/13 07:32:52;;;;;;;1.35;0.70;;;14.20;99.90;;;;;;5008309;28;20191;-67
2023/03/13 07:35:18;;;;;;;1.10;1.00;;;13.90;99.90;;;;;;5007703;28;20207;-66
2023/03/13 07:37:44;;;;;;;1.13;1.00;;;14.20;99.90;;;;;;5003126;28;20442;-69
2023/03/13 07:40:10;;;;;;;1.57;1.27;;;13.90;99.90;;;;;;5003514;28;20211;-69
2023/03/13 07:42:40;;;;;;;1.08;1.00;;;13.90;99.90;;;;;;5006285;28;20277;-69
2023/03/13 07:45:06;;;;;;;1.23;0.70;;;14.10;99.90;;;;;;5005337;28;20534;-68
2023/03/13 07:47:33;;;;;;;1.45;0.80;;;14.20;99.90;;;;;;5007179;28;20202;-69
2023/03/13 07:49:59;;;;;;;1.40;0.88;;;14.10;99.90;;;;;;5008362;28;20567;-69
2023/03/13 07:52:26;;;;;;;1.17;1.07;;;14.40;99.90;;;;;;5007089;28;20187;-72
2023/03/13 07:54:52;;;;;;;1.70;0.95;;;13.90;99.90;;;;;;5005441;28;20183;-71
2023/03/13 07:57:18;;;;;;;2.33;1.17;;;14.10;99.90;;;;;;5007717;28;20223;-70
2023/03/13 07:59:44;;;;;;;0.70;0.70;;;14.00;99.90;;;;;;5007885;28;20210;-71
2023/03/13 08:02:12;;;;;;;1.63;0.50;;;14.40;99.90;;;;;;5006250;28;20179;-72
2023/03/13 08:04:38;;;;;;;0.93;0.80;;;14.30;99.90;;;;;;5006147;28;20179;-69
2023/03/13 08:07:08;;;;;;;1.50;0.70;;;14.30;99.90;;;;;;5007121;28;20229;-69
2023/03/13 08:09:33;;;;;;;1.05;0.60;;;14.20;99.90;;;;;;5001998;28;20902;-69
2023/03/13 08:11:59;;;;;;;0.80;0.77;;;14.70;99.90;;;;;;5007135;28;20293;-69
2023/03/13 08:14:25;;;;;;;1.20;1.10;;;15.00;99.90;;;;;;5006125;28;20193;-68
2023/03/13 08:16:50;;;;;;;1.10;0.70;;;14.90;99.90;;;;;;5005510;28;20218;-68
2023/03/13 08:19:16;;;;;;;1.03;0.90;;;15.00;99.90;;;;;;5004080;28;20557;-68
2023/03/13 08:21:41;;;;;;;3.50;1.00;;;15.00;99.90;;;;;;5008699;28;20198;-69
2023/03/13 08:24:10;;;;;;;1.10;0.80;;;14.90;99.90;;;;;;5006288;28;20649;-67
2023/03/13 08:26:38;;;;;;;1.05;0.77;;;15.50;99.90;;;;;;5037505;28;20195;-69
2023/03/13 08:29:07;;;;;;;1.98;1.00;;;15.30;99.90;;;;;;5007323;28;20206;-69
2023/03/13 08:31:40;;;;;;;2.33;1.05;;;15.50;99.90;;;;;;5007594;28;20187;-69
2023/03/13 08:34:06;;;;;;;1.00;0.90;;;15.50;99.90;;;;;;5038550;28;20178;-70
2023/03/13 08:36:34;;;;;;;1.10;1.00;;;15.80;99.90;;;;;;5009104;28;20225;-70
2023/03/13 08:39:03;;;;;;;0.80;0.75;;;15.80;99.90;;;;;;5008054;28;20184;-70
2023/03/13 08:41:32;;;;;;;1.92;1.40;;;15.60;99.90;;;;;;5002347;28;20257;-70
2023/03/13 08:43:58;;;;;;;1.20;1.10;;;15.80;99.90;;;;;;5008280;28;20269;-70
2023/03/13 08:46:25;;;;;;;1.73;1.00;;;15.90;99.90;;;;;;5006651;28;20620;-68
2023/03/13 08:48:52;;;;;;;2.85;0.90;;;16.10;99.90;;;;;;5007434;28;20544;-67
2023/03/13 08:51:19;;;;;;;1.30;0.90;;;16.00;99.90;;;;;;5007853;28;20198;-70
2023/03/13 08:53:46;;;;;;;1.80;1.00;;;15.70;99.90;;;;;;5007633;28;20191;-69
2023/03/13 08:56:14;;;;;;;1.65;1.02;;;15.80;99.90;;;;;;5005723;28;20214;-70
2023/03/13 08:58:40;;;;;;;1.70;0.85;;;15.80;99.90;;;;;;5007257;28;20187;-69
2023/03/13 09:01:09;;;;;;;1.87;1.00;;;15.70;99.90;;;;;;5006168;28;20250;-69
2023/03/13 09:03:34;;;;;;;1.30;1.20;;;15.70;99.90;;;;;;5005829;28;20668;-71
2023/03/13 09:06:01;;;;;;;0.83;0.83;;;15.90;99.90;;;;;;5006230;28;20264;-69
2023/03/13 09:08:28;;;;;;;2.25;0.80;;;16.00;99.90;;;;;;5005278;28;20194;-69
2023/03/13 09:10:59;;;;;;;1.30;0.93;;;15.50;99.90;;;;;;5001827;28;20745;-69
2023/03/13 09:13:26;;;;;;;2.65;1.50;;;15.80;99.90;;;;;;5005274;28;20191;-69
2023/03/13 09:16:07;;;;;;;1.85;0.95;;;15.90;99.90;;;;;;5007257;28;20309;-69
2023/03/13 09:18:33;;;;;;;1.88;1.10;;;15.90;99.90;;;;;;5007726;28;20192;-69
2023/03/13 09:20:59;;;;;;;2.85;1.35;;;16.10;99.90;;;;;;5006908;28;20241;-68
2023/03/13 09:23:25;;;;;;;1.30;0.97;;;16.10;99.90;;;;;;5006521;28;20206;-69
2023/03/13 09:25:52;;;;;;;2.03;1.00;;;16.00;99.90;;;;;;5004021;28;20504;-69
2023/03/13 09:28:18;;;;;;;2.75;1.00;;;16.40;99.90;;;;;;5005590;28;20480;-69
2023/03/13 09:30:44;;;;;;;1.57;1.00;;;16.30;99.90;;;;;;5010029;28;20222;-68
2023/03/13 09:33:09;;;;;;;1.77;0.93;;;16.30;99.90;;;;;;5008182;28;21732;-68
2023/03/13 09:35:38;;;;;;;2.10;0.90;;;16.30;99.90;;;;;;5011571;28;20651;-67
2023/03/13 09:38:03;;;;;;;2.25;1.00;;;16.60;99.90;;;;;;5010537;28;20214;-68
2023/03/13 09:40:31;;;;;;;1.00;0.90;;;16.60;99.90;;;;;;5007596;28;20252;-67
2023/03/13 09:42:59;;;;;;;1.30;1.20;;;16.70;99.90;;;;;;5011959;28;20612;-67
2023/03/13 09:45:39;;;;;;;1.50;1.08;;;16.40;99.90;;;;;;5010346;28;20301;-68
2023/03/13 09:48:30;;;;;;;1.00;1.00;;;17.10;99.90;;;;;;5008935;28;20202;-68
2023/03/13 09:51:17;;;;;;;2.03;0.98;;;17.30;99.40;;;;;;5042102;28;20202;-68
2023/03/13 09:54:01;;;;;;;2.33;1.25;;;17.90;98.10;;;;;;5010427;28;20195;-68
2023/03/13 09:56:37;;;;;;;4.05;1.30;;;18.50;96.80;;;;;;5009321;28;20309;-67
2023/03/13 09:59:27;;;;;;;3.92;1.45;;;18.80;95.90;;;;;;5011257;28;20265;-67
2023/03/13 10:01:54;;;;;;;1.40;0.77;;;18.20;95.80;;;;;;5006643;28;20245;-67
2023/03/13 10:04:52;;;;;;;1.50;1.30;;;18.40;95.90;;;;;;5007549;28;20186;-71
2023/03/13 10:07:20;;;;;;;2.88;1.08;;;18.60;95.10;;;;;;5008494;28;20199;-71
2023/03/13 10:09:45;;;;;;;1.55;1.45;;;18.70;95.10;;;;;;5007314;28;20195;-72
2023/03/13 10:12:23;;;;;;;1.20;1.10;;;18.90;94.90;;;;;;5011091;28;20190;-71
2023/03/13 10:15:07;;;;;;;2.87;1.43;;;19.80;93.70;;;;;;5010436;28;20183;-70
2023/03/13 10:17:37;;;;;;;3.10;1.10;;;21.30;91.60;;;;;;5008365;28;20472;-68
2023/03/13 10:20:28;;;;;;;1.80;1.40;;;22.70;87.80;;;;;;5008800;28;20466;-68
2023/03/13 10:23:12;;;;;;;2.93;1.50;;;23.50;84.40;;;;;;5009282;28;20452;-68
2023/03/13 10:25:38;;;;;;;1.53;1.30;;;24.10;81.30;;;;;;5000822;28;20448;-67
2023/03/13 10:28:09;;;;;;;2.30;1.20;;;24.60;77.60;;;;;;5015008;28;20449;-70
2023/03/13 10:30:38;;;;;;;4.30;1.30;;;24.10;77.10;;;;;;5008993;28;20490;-70
2023/03/13 10:33:07;;;;;;;8.40;1.90;;;24.20;77.40;;;;;;5007373;28;20470;-70
2023/03/13 10:35:35;;;;;;;1.43;1.23;;;23.60;77.10;;;;;;5008750;28;20469;-70
2023/03/13 10:38:12;;;;;;;1.40;1.03;;;23.20;78.60;;;;;;5007472;28;20538;-65
2023/03/13 10:40:39;;;;;;;1.40;1.30;;;23.30;78.60;;;;;;5002700;28;20498;-66
2023/03/13 10:43:24;;;;;;;2.83;1.70;;;22.60;80.00;;;;;;5008326;28;20916;-66
2023/03/13 10:45:53;;;;;;;1.47;1.27;;;22.40;81.20;;;;;;5009129;28;20445;-66
2023/03/13 10:48:23;;;;;;;2.27;1.77;;;22.10;81.70;;;;;;5042102;28;20515;-66
2023/03/13 10:50:51;;;;;;;1.93;1.40;;;21.60;82.80;;;;;;5008442;28;20891;-66
2023/03/13 10:53:29;;;;;;;4.17;1.40;;;21.60;84.60;;;;;;5010028;28;20544;-67
2023/03/13 10:56:18;;;;;;;1.93;1.40;;;21.40;85.50;;;;;;5005033;28;20560;-67
2023/03/13 10:58:47;;;;;;;3.43;1.60;;;21.60;84.30;;;;;;5007716;28;20449;-66
2023/03/13 11:01:23;;;;;;;2.07;1.40;;;21.90;83.70;;;;;;5009791;28;20819;-66
2023/03/13 11:03:50;;;;;;;4.63;2.00;;;22.10;83.00;;;;;;5039241;28;20783;-67
2023/03/13 11:06:36;;;;;;;3.03;1.63;;;22.30;82.00;;;;;;5006522;28;20446;-67
2023/03/13 11:09:13;;;;;;;1.90;1.70;;;22.30;81.70;;;;;;5008791;28;20476;-67
2023/03/13 11:11:53;;;;;;;1.30;1.17;;;22.40;82.10;;;;;;5006865;28;20453;-67
2023/03/13 11:14:21;;;;;;;2.20;1.67;;;22.00;81.70;;;;;;5006996;28;20454;-68
2023/03/13 11:16:49;;;;;;;2.40;1.60;;;21.80;83.60;;;;;;5008213;28;20544;-68
2023/03/13 11:19:14;;;;;;;3.50;2.08;;;21.20;84.10;;;;;;5005434;28;20469;-68
2023/03/13 11:21:58;;;;;;;6.90;3.20;;;20.90;85.20;;;;;;5008661;28;20727;-68
2023/03/13 11:25:02;;;;;;;1.50;1.40;;;20.90;86.50;;;;;;5032992;28;20617;-69
2023/03/13 11:27:48;;;;;;;2.50;1.70;;;21.10;85.60;;;;;;5006418;28;20617;-68
2023/03/13 11:30:38;;;;;;;6.70;6.00;;;21.00;85.70;;;;;;5011509;28;21099;-68
2023/03/13 11:33:21;;;;;;;1.90;1.60;;;21.00;86.10;;;;;;5021692;28;20186;-67
2023/03/13 11:35:55;;;;;;;4.80;1.45;;;21.00;85.70;;;;;;5008643;28;20282;-68
2023/03/13 11:38:28;;;;;;;2.23;1.43;;;21.50;85.20;;;;;;5009281;28;20214;-67
2023/03/13 11:41:15;;;;;;;1.63;1.30;;;22.00;83.10;;;;;;5009078;28;20519;-67
2023/03/13 11:44:10;;;;;;;1.40;1.30;;;22.20;82.00;;;;;;5008578;28;20467;-68
2023/03/13 11:46:57;;;;;;;2.20;1.60;;;22.90;80.30;;;;;;4996776;28;20524;-68
2023/03/13 11:49:52;;;;;;;1.83;1.37;;;22.90;79.40;;;;;;5002634;28;20465;-68
2023/03/13 11:52:24;;;;;;;1.30;1.20;;;22.60;79.60;;;;;;5009830;28;20528;-68
2023/03/13 11:55:16;;;;;;;3.97;2.30;;;22.40;80.80;;;;;;5003512;28;21317;-68
2023/03/13 11:58:06;;;;;;;2.47;1.67;;;22.00;82.20;;;;;;5006457;28;20484;-69
2023/03/13 12:01:01;;;;;;;1.70;1.60;;;21.60;83.00;;;;;;5016631;28;20488;-69
2023/03/13 12:03:41;;;;;;;3.80;1.90;;;21.70;82.90;;;;;;5007481;28;20461;-69
2023/03/13 12:06:21;;;;;;;8.17;2.63;;;21.70;82.90;;;;;;5006800;28;20583;-70
2023/03/13 12:08:54;;;;;;;2.20;1.90;;;21.50;83.90;;;;;;5007535;28;20457;-69
2023/03/13 12:11:31;;;;;;;4.10;1.60;;;21.80;82.90;;;;;;5006008;28;20507;-69
2023/03/13 12:14:17;;;;;;;1.47;1.37;;;22.20;81.40;;;;;;5006012;28;20457;-70
2023/03/13 12:16:51;;;;;;;3.00;1.40;;;22.30;80.50;;;;;;5007061;28;20470;-70
2023/03/13 12:19:28;;;;;;;2.13;1.37;;;22.40;80.40;;;;;;5007018;28;20465;-68
2023/03/13 12:21:57;;;;;;;1.60;1.50;;;22.40;80.20;;;;;;5006652;28;20449;-68
2023/03/13 12:24:40;;;;;;;3.83;1.60;;;22.20;80.50;;;;;;5004070;28;20952;-69
2023/03/13 12:27:20;;;;;;;2.60;1.60;;;22.00;80.20;;;;;;5008441;28;20942;-70
2023/03/13 12:29:56;;;;;;;3.03;1.40;;;22.00;80.10;;;;;;5005036;28;20504;-69
2023/03/13 12:33:08;;;;;;;4.47;1.83;;;22.00;80.40;;;;;;5007120;28;20787;-68
2023/03/13 12:35:36;;;;;;;1.70;1.60;;;21.90;80.30;;;;;;4997705;28;20836;-70
2023/03/13 12:38:23;;;;;;;2.27;1.40;;;21.80;80.80;;;;;;5007121;28;20442;-69
2023/03/13 12:41:00;;;;;;;2.70;1.57;;;21.70;80.70;;;;;;5001738;28;21030;-70
2023/03/13 12:43:31;;;;;;;3.00;1.40;;;21.60;80.90;;;;;;5007135;28;20941;-70
2023/03/13 12:45:57;;;;;;;6.90;1.60;;;21.60;80.90;;;;;;5006632;28;20589;-70
2023/03/13 12:48:44;;;;;;;2.83;1.40;;;21.60;80.60;;;;;;5020815;28;20492;-68
2023/03/13 12:51:24;;;;;;;2.30;1.40;;;21.60;80.70;;;;;;5007632;28;20206;-68
2023/03/13 12:54:14;;;;;;;2.10;1.50;;;21.80;81.80;;;;;;5006476;28;20445;-68
2023/03/13 12:56:44;;;;;;;8.97;2.57;;;21.80;80.70;;;;;;5038841;28;20605;-69
2023/03/13 12:59:32;;;;;;;5.35;2.33;;;21.90;80.10;;;;;;5002537;28;21040;-70
2023/03/13 13:02:00;;;;;;;2.30;1.40;;;21.80;79.60;;;;;;5007422;28;20210;-71